Time;durP1;ratioP1;P1;durP2;ratioP2;P2;SDS_P1;SDS_P2;PMS_P1;PMS_P2;Temp;Humidity;BMP_temperature;BMP_pressure;BME280_temperature;BME280_humidity;BME280_pressure;Samples;Min_cycle;Max_cycle;Signal;HPM_P1;HPM_P2
2023/10/04 00:00:47;;;;;;;5.88;1.73;;;;;;;8.52;100.00;94145.31;2087698;28;20136;-82
2023/10/04 00:01:50;;;;;;;3.80;1.50;;;;;;;8.33;100.00;94151.69;2103485;28;20083;-82
2023/10/04 00:02:52;;;;;;;2.88;1.45;;;;;;;8.22;100.00;94139.47;2103524;28;20016;-83
2023/10/04 00:03:53;;;;;;;3.63;1.40;;;;;;;8.16;100.00;94148.94;2096584;28;20032;-83
2023/10/04 00:04:54;;;;;;;4.00;1.50;;;;;;;8.18;100.00;94150.13;2095286;28;20035;-83
2023/10/04 00:05:55;;;;;;;2.58;1.33;;;;;;;8.16;100.00;94151.63;2093040;28;20480;-81
2023/10/04 00:06:57;;;;;;;2.38;1.65;;;;;;;8.09;100.00;94152.38;2094551;28;20032;-82
2023/10/04 00:07:59;;;;;;;3.03;1.65;;;;;;;8.00;100.00;94160.69;2093506;28;20016;-82
2023/10/04 00:09:00;;;;;;;3.42;1.10;;;;;;;7.96;100.00;94154.56;2089925;28;20021;-81
2023/10/04 00:10:05;;;;;;;2.55;1.52;;;;;;;7.81;100.00;94161.75;2089975;28;20083;-83
2023/10/04 00:11:06;;;;;;;6.20;1.50;;;;;;;7.78;100.00;94159.81;2098228;28;20062;-81
2023/10/04 00:12:08;;;;;;;3.65;1.52;;;;;;;7.95;100.00;94158.38;2101505;28;20020;-81
2023/10/04 00:13:12;;;;;;;1.77;1.30;;;;;;;8.02;100.00;94162.97;2081832;28;20070;-82
2023/10/04 00:14:13;;;;;;;2.08;1.20;;;;;;;7.98;100.00;94165.59;2085300;28;20450;-80
2023/10/04 00:15:14;;;;;;;2.03;1.40;;;;;;;7.89;100.00;94164.41;2097220;28;20679;-84
2023/10/04 00:16:15;;;;;;;1.70;1.30;;;;;;;7.89;100.00;94161.75;2087579;28;20049;-83
2023/10/04 00:17:16;;;;;;;3.08;1.58;;;;;;;7.98;100.00;94160.28;2085970;28;20481;-81
2023/10/04 00:18:17;;;;;;;1.95;1.20;;;;;;;7.95;100.00;94165.63;2083603;28;20075;-83
2023/10/04 00:19:18;;;;;;;3.78;1.40;;;;;;;7.90;100.00;94166.72;2087775;28;20017;-82
2023/10/04 00:20:20;;;;;;;2.85;1.38;;;;;;;7.89;100.00;94164.41;2097665;28;20031;-81
2023/10/04 00:21:22;;;;;;;2.03;1.40;;;;;;;7.88;100.00;94165.56;2105130;28;20035;-81
2023/10/04 00:22:23;;;;;;;2.28;1.50;;;;;;;7.95;100.00;94163.72;2089447;28;20020;-82
2023/10/04 00:23:24;;;;;;;2.65;1.50;;;;;;;8.03;100.00;94164.50;2097765;28;20044;-84
2023/10/04 00:24:26;;;;;;;1.98;1.10;;;;;;;7.73;100.00;94164.72;2082054;28;20029;-82
2023/10/04 00:25:28;;;;;;;4.05;1.40;;;;;;;7.63;100.00;94170.72;2089839;28;20079;-81
2023/10/04 00:26:30;;;;;;;3.17;1.75;;;;;;;7.60;100.00;94176.81;2097911;28;20042;-81
2023/10/04 00:27:32;;;;;;;1.77;1.15;;;;;;;7.52;100.00;94173.34;2089500;28;20021;-82
2023/10/04 00:28:34;;;;;;;2.67;1.35;;;;;;;7.62;100.00;94169.97;2087008;28;20494;-81
2023/10/04 00:29:35;;;;;;;1.30;1.17;;;;;;;7.70;100.00;94174.22;2073817;28;20682;-82
2023/10/04 00:30:36;;;;;;;2.60;1.35;;;;;;;7.75;100.00;94168.53;2082564;28;20024;-84
2023/10/04 00:31:37;;;;;;;1.60;1.30;;;;;;;7.61;100.00;94173.00;2089448;28;20075;-82
2023/10/04 00:32:38;;;;;;;4.13;1.40;;;;;;;7.68;100.00;94175.69;2082027;28;20021;-82
2023/10/04 00:33:39;;;;;;;2.85;1.38;;;;;;;7.79;100.00;94169.31;2089510;28;20561;-82
2023/10/04 00:34:40;;;;;;;3.42;1.35;;;;;;;7.81;100.00;94169.72;2084532;28;20059;-84
2023/10/04 00:35:41;;;;;;;3.75;1.30;;;;;;;7.77;100.00;94163.63;2095262;28;20024;-83
2023/10/04 00:36:44;;;;;;;3.30;1.48;;;;;;;7.71;100.00;94165.09;2096139;28;20024;-82
2023/10/04 00:37:57;;;;;;;3.78;1.20;;;;;;;7.66;100.00;94167.34;2084863;28;20083;-82
2023/10/04 00:38:58;;;;;;;6.65;1.52;;;;;;;7.64;100.00;94167.72;2096631;28;20032;-82
2023/10/04 00:40:00;;;;;;;2.10;1.27;;;;;;;7.60;100.00;94163.50;2101754;28;20028;-80
2023/10/04 00:41:01;;;;;;;3.05;1.40;;;;;;;7.76;100.00;94171.94;2091099;28;20414;-81
2023/10/04 00:42:03;;;;;;;3.15;1.65;;;;;;;7.66;100.00;94172.66;2097480;28;20100;-80
2023/10/04 00:43:14;;;;;;;2.58;1.30;;;;;;;7.69;100.00;94171.94;2093475;28;20615;-79
2023/10/04 00:44:15;;;;;;;2.03;1.30;;;;;;;7.60;100.00;94169.59;2104240;28;20036;-81
2023/10/04 00:45:22;;;;;;;4.22;1.40;;;;;;;7.55;100.00;94170.69;2101717;28;20019;-81
2023/10/04 00:46:23;;;;;;;3.33;1.40;;;;;;;7.54;100.00;94173.72;2086528;28;20425;-82
2023/10/04 00:47:24;;;;;;;2.45;1.20;;;;;;;7.47;100.00;94165.69;2095555;28;20059;-82
2023/10/04 00:48:34;;;;;;;2.90;1.50;;;;;;;7.46;100.00;94167.59;2085841;28;20032;-84
2023/10/04 00:49:35;;;;;;;3.60;1.40;;;;;;;7.45;100.00;94168.72;2079308;28;20030;-83
2023/10/04 00:50:37;;;;;;;2.53;1.58;;;;;;;7.38;100.00;94163.34;2097719;28;20036;-81
2023/10/04 00:51:40;;;;;;;2.10;1.52;;;;;;;7.47;100.00;94161.13;2103732;28;20024;-80
2023/10/04 00:52:54;;;;;;;2.83;1.45;;;;;;;7.70;100.00;94157.47;2097192;28;20414;-81
2023/10/04 00:53:55;;;;;;;2.40;1.60;;;;;;;7.67;100.00;94164.28;2089764;28;20025;-81
2023/10/04 00:54:56;;;;;;;2.75;1.80;;;;;;;7.72;100.00;94155.97;2092245;28;20070;-80
2023/10/04 00:55:57;;;;;;;3.00;1.60;;;;;;;7.67;100.00;94160.88;2092125;28;20150;-81
2023/10/04 00:57:06;;;;;;;4.05;1.50;;;;;;;7.75;100.00;94159.78;2106481;28;20028;-82
2023/10/04 00:58:08;;;;;;;4.57;1.88;;;;;;;7.71;100.00;94148.34;2093292;28;20463;-80
2023/10/04 00:59:09;;;;;;;2.67;1.50;;;;;;;7.45;100.00;94155.41;2089641;28;20024;-82
2023/10/04 01:00:11;;;;;;;2.38;1.67;;;;;;;7.50;100.00;94154.28;2092637;28;20303;-83
2023/10/04 01:01:14;;;;;;;2.80;1.48;;;;;;;7.42;100.00;94158.03;2093630;28;20028;-82
2023/10/04 01:02:15;;;;;;;2.75;1.42;;;;;;;7.53;100.00;94151.66;2095741;28;20025;-81
2023/10/04 01:03:24;;;;;;;2.38;1.45;;;;;;;7.39;100.00;94151.56;2088651;28;20446;-82
2023/10/04 01:04:25;;;;;;;2.28;1.35;;;;;;;7.29;100.00;94154.94;2096276;28;20035;-84
2023/10/04 01:05:27;;;;;;;2.85;1.48;;;;;;;7.41;100.00;94151.19;2088472;28;20027;-82
2023/10/04 01:06:35;;;;;;;2.78;1.77;;;;;;;7.36;100.00;94147.00;2081857;28;20078;-83
2023/10/04 01:07:38;;;;;;;3.47;1.48;;;;;;;7.35;100.00;94150.03;2106184;28;20035;-81
2023/10/04 01:08:40;;;;;;;2.40;1.45;;;;;;;7.26;100.00;94145.78;2089502;28;20025;-83
2023/10/04 01:09:42;;;;;;;2.17;1.30;;;;;;;7.18;100.00;94141.53;2081859;28;20029;-80
2023/10/04 01:10:44;;;;;;;1.88;1.13;;;;;;;7.12;100.00;94136.94;2087897;28;20021;-81
2023/10/04 01:11:46;;;;;;;2.25;1.55;;;;;;;7.21;100.00;94140.06;2086263;28;20032;-80
2023/10/04 01:12:49;;;;;;;3.88;2.10;;;;;;;7.20;100.00;94135.84;2095227;28;20075;-82
2023/10/04 01:14:08;;;;;;;2.10;1.40;;;;;;;7.34;100.00;94133.31;2091897;28;20027;-82
2023/10/04 01:16:25;;;;;;;3.47;1.67;;;;;;;7.31;100.00;94136.69;2101959;28;20021;-81
2023/10/04 01:17:28;;;;;;;3.17;1.60;;;;;;;7.30;100.00;94135.94;2097228;28;20028;-81
2023/10/04 01:18:29;;;;;;;3.22;1.60;;;;;;;7.31;100.00;94128.72;2099838;28;20115;-81
2023/10/04 01:19:30;;;;;;;1.85;1.20;;;;;;;7.10;100.00;94139.94;2112825;28;20070;-80
2023/10/04 01:20:33;;;;;;;1.92;1.17;;;;;;;7.18;100.00;94138.13;2113976;28;20046;-82
2023/10/04 01:21:36;;;;;;;1.67;1.40;;;;;;;7.05;100.00;94135.75;2086568;28;20070;-80
2023/10/04 01:22:37;;;;;;;2.65;1.75;;;;;;;7.15;100.00;94134.28;2096570;28;20024;-82
2023/10/04 01:23:40;;;;;;;2.72;1.55;;;;;;;7.06;100.00;94139.91;2085474;28;20455;-83
2023/10/04 01:24:41;;;;;;;2.40;1.42;;;;;;;7.11;100.00;94136.16;2089287;28;20032;-81
2023/10/04 01:25:46;;;;;;;1.98;1.25;;;;;;;7.16;100.00;94135.84;2083658;28;20044;-82
2023/10/04 01:26:48;;;;;;;2.40;1.42;;;;;;;7.07;100.00;94138.06;2086967;28;20099;-81
2023/10/04 01:27:48;;;;;;;6.22;1.58;;;;;;;6.91;100.00;94146.25;2094947;28;20105;-82
2023/10/04 01:28:50;;;;;;;4.72;1.83;;;;;;;6.92;100.00;94144.34;2083010;28;20091;-80
2023/10/04 01:29:51;;;;;;;2.25;1.33;;;;;;;7.01;100.00;94150.13;2094863;28;20082;-82
2023/10/04 01:30:51;;;;;;;2.50;1.40;;;;;;;6.94;100.00;94148.19;2108080;28;20109;-80
2023/10/04 01:31:53;;;;;;;1.90;1.20;;;;;;;6.84;100.00;94154.16;2102254;28;20055;-80
2023/10/04 01:32:55;;;;;;;2.38;1.30;;;;;;;6.95;100.00;94149.72;2112855;28;20027;-81
2023/10/04 01:33:56;;;;;;;2.50;1.50;;;;;;;6.92;100.00;94149.69;2105357;28;20035;-83
2023/10/04 01:34:59;;;;;;;2.33;1.40;;;;;;;6.95;100.00;94147.06;2085402;28;20037;-82
2023/10/04 01:36:00;;;;;;;3.05;1.27;;;;;;;6.91;100.00;94151.56;2093059;28;20020;-80
2023/10/04 01:37:04;;;;;;;3.85;1.70;;;;;;;6.90;100.00;94141.31;2082129;28;20033;-82
2023/10/04 01:38:06;;;;;;;1.83;1.20;;;;;;;6.95;100.00;94138.31;2082624;28;20491;-81
2023/10/04 01:39:07;;;;;;;2.67;1.30;;;;;;;6.94;100.00;94145.53;2110213;28;20015;-82
2023/10/04 01:40:12;;;;;;;2.13;1.42;;;;;;;7.07;100.00;94144.13;2095111;28;20025;-80
2023/10/04 01:41:14;;;;;;;1.70;1.20;;;;;;;7.06;100.00;94131.94;2100566;28;20028;-81
2023/10/04 01:42:14;;;;;;;2.50;1.30;;;;;;;7.01;100.00;94144.81;2092444;28;20044;-83
2023/10/04 01:43:16;;;;;;;1.95;1.30;;;;;;;6.81;100.00;94144.28;2092666;28;20458;-83
2023/10/04 01:44:17;;;;;;;2.55;1.23;;;;;;;6.79;100.00;94141.97;2091500;28;20143;-80
2023/10/04 01:45:18;;;;;;;2.63;1.20;;;;;;;6.81;100.00;94145.03;2095572;28;20021;-82
2023/10/04 01:46:19;;;;;;;2.40;1.17;;;;;;;6.89;100.00;94145.09;2087892;28;20082;-82
2023/10/04 01:47:21;;;;;;;1.80;1.40;;;;;;;6.94;100.00;94136.81;2094239;28;20130;-82
2023/10/04 01:48:22;;;;;;;1.90;1.23;;;;;;;6.93;100.00;94140.56;2091666;28;20063;-82
2023/10/04 01:49:24;;;;;;;4.20;1.08;;;;;;;6.88;100.00;94143.56;2084337;28;20017;-80
2023/10/04 01:50:25;;;;;;;3.03;1.38;;;;;;;6.93;100.00;94138.66;2081120;28;20062;-81
2023/10/04 01:51:29;;;;;;;2.58;1.20;;;;;;;6.84;100.00;94134.78;2092343;28;20143;-81
2023/10/04 01:52:30;;;;;;;3.47;1.20;;;;;;;6.98;100.00;94143.69;2097677;28;20051;-81
2023/10/04 01:53:34;;;;;;;1.35;0.75;;;;;;;6.90;100.00;94130.69;2084126;28;20088;-83
2023/10/04 01:54:35;;;;;;;1.30;1.17;;;;;;;6.80;100.00;94129.44;2074647;28;20073;-82
2023/10/04 01:55:36;;;;;;;1.50;0.95;;;;;;;6.86;100.00;94132.56;2080913;28;20029;-81
2023/10/04 01:56:41;;;;;;;1.40;1.00;;;;;;;6.96;100.00;94137.94;2083524;28;20033;-83
2023/10/04 01:57:43;;;;;;;2.55;1.35;;;;;;;6.96;100.00;94137.94;2092100;28;20029;-84
2023/10/04 01:58:48;;;;;;;1.98;1.40;;;;;;;6.92;100.00;94149.69;2089092;28;20025;-82
2023/10/04 01:59:49;;;;;;;3.40;1.17;;;;;;;6.69;100.00;94145.28;2091878;28;20076;-81
2023/10/04 02:00:51;;;;;;;2.70;1.10;;;;;;;6.69;100.00;94145.28;2105496;28;20039;-79
2023/10/04 02:01:57;;;;;;;3.00;1.20;;;;;;;6.55;100.00;94148.59;2102760;28;20903;-84
2023/10/04 02:03:01;;;;;;;2.13;1.35;;;;;;;6.63;100.00;94144.13;2093300;28;20067;-82
2023/10/04 02:04:05;;;;;;;2.83;1.08;;;;;;;6.68;100.00;94148.34;2089799;28;20112;-81
2023/10/04 02:05:15;;;;;;;1.88;1.10;;;;;;;6.63;100.00;94145.97;2104265;28;20028;-81
2023/10/04 02:06:16;;;;;;;1.27;1.02;;;;;;;6.74;100.00;94149.50;2105245;28;20024;-81
2023/10/04 02:07:17;;;;;;;1.85;1.13;;;;;;;6.83;100.00;94144.66;2102488;28;20024;-81
2023/10/04 02:08:18;;;;;;;2.85;1.27;;;;;;;6.84;100.00;94140.88;2090213;28;20028;-84
2023/10/04 02:09:20;;;;;;;1.88;1.00;;;;;;;6.95;100.00;94144.41;2094993;28;20028;-83
2023/10/04 02:10:26;;;;;;;2.47;1.17;;;;;;;6.93;100.00;94140.56;2112164;28;20027;-84
2023/10/04 02:11:27;;;;;;;4.03;1.10;;;;;;;6.97;100.00;94138.69;2112815;28;20031;-81
2023/10/04 02:12:28;;;;;;;2.53;1.00;;;;;;;6.98;100.00;94138.34;2104786;28;20016;-82
2023/10/04 02:13:28;;;;;;;1.90;1.23;;;;;;;6.97;100.00;94147.44;2096494;28;20020;-81
2023/10/04 02:14:33;;;;;;;5.65;1.20;;;;;;;7.04;100.00;94144.09;2096723;28;20025;-81
2023/10/04 02:15:34;;;;;;;1.95;0.98;;;;;;;7.04;100.00;94139.53;2096831;28;20115;-84
2023/10/04 02:16:39;;;;;;;2.55;1.10;;;;;;;7.10;100.00;94141.84;2083991;28;20026;-83
2023/10/04 02:17:44;;;;;;;2.20;1.10;;;;;;;7.10;100.00;94139.19;2096299;28;20047;-83
2023/10/04 02:18:46;;;;;;;1.90;1.13;;;;;;;7.15;100.00;94146.81;2081293;28;20304;-82
2023/10/04 02:19:47;;;;;;;2.20;1.05;;;;;;;6.94;100.00;94144.78;2090813;28;20032;-80
2023/10/04 02:20:49;;;;;;;2.75;1.27;;;;;;;6.94;100.00;94150.09;2097164;28;20028;-84
2023/10/04 02:21:50;;;;;;;1.55;1.08;;;;;;;7.12;100.00;94152.91;2097906;28;20107;-81
2023/10/04 02:22:51;;;;;;;2.60;1.17;;;;;;;7.22;100.00;94142.34;2099460;28;20040;-81
2023/10/04 02:23:53;;;;;;;1.63;1.10;;;;;;;7.11;100.00;94143.38;2103566;28;20127;-82
2023/10/04 02:24:55;;;;;;;1.83;1.13;;;;;;;7.10;100.00;94139.94;2092110;28;20060;-82
2023/10/04 02:25:57;;;;;;;2.85;1.20;;;;;;;7.06;100.00;94147.88;2087599;28;20024;-82
2023/10/04 02:27:01;;;;;;;1.50;0.90;;;;;;;7.10;100.00;94142.59;2095805;28;20055;-83
2023/10/04 02:28:06;;;;;;;2.03;1.35;;;;;;;7.07;100.00;94149.44;2109437;28;20024;-83
2023/10/04 02:29:09;;;;;;;2.28;1.20;;;;;;;7.24;100.00;94145.41;2097406;28;20097;-81
2023/10/04 02:30:15;;;;;;;1.20;1.10;;;;;;;7.09;100.00;94146.41;2095180;28;20120;-83
2023/10/04 02:31:20;;;;;;;3.13;1.20;;;;;;;7.14;100.00;94150.63;2105959;28;20062;-82
2023/10/04 02:32:21;;;;;;;2.08;0.90;;;;;;;7.09;100.00;94140.31;2089449;28;20020;-83
2023/10/04 02:33:22;;;;;;;1.85;1.08;;;;;;;6.89;100.00;94145.09;2083362;28;20021;-81
2023/10/04 02:34:23;;;;;;;2.80;1.17;;;;;;;6.95;100.00;94144.41;2080600;28;20072;-83
2023/10/04 02:35:29;;;;;;;2.55;1.23;;;;;;;6.96;100.00;94150.47;2093884;28;20020;-81
2023/10/04 02:36:30;;;;;;;1.73;1.17;;;;;;;7.04;100.00;94152.06;2097170;28;20027;-82
2023/10/04 02:37:31;;;;;;;1.52;1.20;;;;;;;7.00;100.00;94149.38;2096769;28;20016;-81
2023/10/04 02:38:34;;;;;;;1.85;1.10;;;;;;;6.91;100.00;94140.94;2083954;28;20056;-81
2023/10/04 02:39:38;;;;;;;1.38;1.20;;;;;;;6.93;100.00;94146.63;2088616;28;20474;-84
2023/10/04 02:40:39;;;;;;;1.33;1.00;;;;;;;7.09;100.00;94153.63;2096046;28;20481;-81
2023/10/04 02:41:41;;;;;;;2.13;1.40;;;;;;;7.02;100.00;94147.13;2087631;28;20025;-81
2023/10/04 02:42:45;;;;;;;1.70;0.95;;;;;;;7.19;100.00;94139.63;2088096;28;20057;-81
2023/10/04 02:43:46;;;;;;;2.97;1.50;;;;;;;7.17;100.00;94144.56;2086171;28;20025;-82
2023/10/04 02:44:48;;;;;;;1.40;1.17;;;;;;;7.19;100.00;94147.63;2086308;28;20049;-80
2023/10/04 02:45:50;;;;;;;3.95;1.20;;;;;;;7.21;100.00;94148.78;2085382;28;20542;-82
2023/10/04 02:46:51;;;;;;;1.52;1.20;;;;;;;7.19;100.00;94150.28;2104869;28;20016;-83
2023/10/04 02:47:53;;;;;;;5.22;1.17;;;;;;;7.18;100.00;94148.75;2094197;28;20048;-81
2023/10/04 02:48:54;;;;;;;1.58;1.08;;;;;;;7.22;100.00;94152.97;2091617;28;20044;-82
2023/10/04 02:49:57;;;;;;;2.38;1.10;;;;;;;7.25;100.00;94148.81;2091034;28;20024;-81
2023/10/04 02:50:58;;;;;;;3.42;1.17;;;;;;;7.36;100.00;94152.31;2087636;28;20024;-79
2023/10/04 02:51:59;;;;;;;3.05;1.10;;;;;;;7.45;100.00;94160.72;2096136;28;20017;-84
2023/10/04 02:53:00;;;;;;;4.47;1.40;;;;;;;7.47;100.00;94150.50;2101232;28;20032;-83
2023/10/04 02:54:04;;;;;;;2.22;1.48;;;;;;;7.42;100.00;94150.06;2088038;28;20528;-80
2023/10/04 02:55:06;;;;;;;1.92;1.27;;;;;;;7.29;100.00;94145.06;2086660;28;20563;-83
2023/10/04 02:56:07;;;;;;;3.40;1.27;;;;;;;7.30;100.00;94148.47;2088804;28;20104;-86
2023/10/04 02:57:08;;;;;;;2.58;1.33;;;;;;;7.24;100.00;94156.03;2096332;28;20470;-81
2023/10/04 02:58:12;;;;;;;1.58;1.30;;;;;;;7.29;100.00;94149.63;2083743;28;20047;-81
2023/10/04 02:59:16;;;;;;;1.95;1.30;;;;;;;7.40;100.00;94155.75;2087095;28;20204;-83
2023/10/04 03:00:19;;;;;;;1.98;1.13;;;;;;;7.31;100.00;94150.75;2091194;28;20047;-81
2023/10/04 03:01:22;;;;;;;1.73;1.23;;;;;;;7.33;100.00;94153.03;2103647;28;20024;-81
2023/10/04 03:02:23;;;;;;;2.47;1.30;;;;;;;7.43;100.00;94152.38;2104794;28;20410;-83
2023/10/04 03:03:24;;;;;;;2.35;1.27;;;;;;;7.49;100.00;94153.53;2087558;28;20925;-83
2023/10/04 03:04:25;;;;;;;3.22;1.13;;;;;;;7.53;100.00;94161.53;2095077;28;20028;-81
2023/10/04 03:05:29;;;;;;;2.80;1.27;;;;;;;7.53;100.00;94159.66;2093663;28;20033;-80
2023/10/04 03:06:31;;;;;;;2.47;1.30;;;;;;;7.55;100.00;94157.41;2105942;28;20028;-83
2023/10/04 03:07:32;;;;;;;2.63;1.33;;;;;;;7.55;100.00;94152.06;2112926;28;20031;-83
2023/10/04 03:08:33;;;;;;;3.08;1.45;;;;;;;7.53;100.00;94153.56;2100020;28;20027;-82
2023/10/04 03:09:34;;;;;;;3.38;1.30;;;;;;;7.51;100.00;94155.84;2084126;28;20056;-84
2023/10/04 03:10:40;;;;;;;1.45;1.17;;;;;;;7.52;100.00;94152.03;2091484;28;20041;-84
2023/10/04 03:11:42;;;;;;;2.65;1.38;;;;;;;7.48;100.00;94143.28;2088168;28;20112;-82
2023/10/04 03:12:43;;;;;;;5.15;1.30;;;;;;;7.40;100.00;94150.44;2088635;28;20112;-81
2023/10/04 03:13:47;;;;;;;3.05;1.50;;;;;;;7.46;100.00;94148.19;2080001;28;20059;-83
2023/10/04 03:14:48;;;;;;;2.10;1.30;;;;;;;7.40;100.00;94155.75;2073245;28;20065;-81
2023/10/04 03:15:52;;;;;;;1.98;1.30;;;;;;;7.39;100.00;94159.56;2084797;28;20025;-80
2023/10/04 03:16:52;;;;;;;2.05;1.23;;;;;;;7.31;100.00;94155.31;2092452;28;20036;-82
2023/10/04 03:17:57;;;;;;;6.78;1.48;;;;;;;7.24;100.00;94155.25;2094372;28;20465;-81
2023/10/04 03:18:59;;;;;;;2.00;1.40;;;;;;;7.29;100.00;94160.25;2101948;28;20380;-83
2023/10/04 03:20:01;;;;;;;2.75;1.65;;;;;;;7.40;100.00;94158.41;2084777;28;20022;-81
2023/10/04 03:22:06;;;;;;;2.78;1.40;;;;;;;7.36;100.00;94160.28;2100772;28;20031;-81
2023/10/04 03:23:11;;;;;;;3.15;1.30;;;;;;;7.36;100.00;94160.28;2097229;28;20045;-81
2023/10/04 03:24:12;;;;;;;2.20;1.23;;;;;;;7.40;100.00;94165.63;2103814;28;20114;-80
2023/10/04 03:25:15;;;;;;;2.63;1.38;;;;;;;7.39;100.00;94158.78;2108838;28;20016;-84
2023/10/04 03:26:16;;;;;;;1.90;1.58;;;;;;;7.35;100.00;94160.66;2105024;28;20114;-82
2023/10/04 03:27:24;;;;;;;3.42;1.70;;;;;;;7.40;100.00;94157.66;2092244;28;20090;-83
2023/10/04 03:28:32;;;;;;;3.60;1.38;;;;;;;7.48;100.00;94156.56;2095633;28;20020;-82
2023/10/04 03:29:34;;;;;;;1.90;1.50;;;;;;;7.42;100.00;94156.16;2095281;28;20032;-83
2023/10/04 03:30:35;;;;;;;3.03;1.33;;;;;;;7.38;100.00;94158.03;2098543;28;20025;-82
2023/10/04 03:31:39;;;;;;;3.63;1.92;;;;;;;7.27;100.00;94159.84;2106750;28;20559;-82
2023/10/04 03:32:41;;;;;;;1.70;1.42;;;;;;;7.35;100.00;94158.75;2090579;28;20025;-82
2023/10/04 03:33:44;;;;;;;2.10;1.33;;;;;;;7.21;100.00;94154.09;2097950;28;20148;-82
2023/10/04 03:34:45;;;;;;;2.28;1.33;;;;;;;7.23;100.00;94159.81;2098560;28;20615;-83
2023/10/04 03:35:48;;;;;;;2.40;1.50;;;;;;;7.15;100.00;94160.13;2083387;28;20048;-82
2023/10/04 03:36:49;;;;;;;3.08;1.48;;;;;;;7.07;100.00;94154.75;2092077;28;20509;-81
2023/10/04 03:38:04;;;;;;;3.05;1.48;;;;;;;7.09;100.00;94148.31;2090395;28;20025;-84
2023/10/04 03:39:09;;;;;;;2.20;1.50;;;;;;;7.08;100.00;94160.84;2108189;28;20020;-80
2023/10/04 03:40:14;;;;;;;1.98;1.60;;;;;;;7.15;100.00;94163.53;2109366;28;20016;-82
2023/10/04 03:41:16;;;;;;;1.83;1.25;;;;;;;7.20;100.00;94163.22;2102463;28;20528;-80
2023/10/04 03:42:17;;;;;;;7.15;1.83;;;;;;;7.18;100.00;94162.06;2083927;28;20108;-82
2023/10/04 03:43:18;;;;;;;4.78;1.40;;;;;;;6.94;100.00;94168.69;2096423;28;20017;-84
2023/10/04 03:44:20;;;;;;;2.72;1.42;;;;;;;6.92;100.00;94163.72;2097642;28;20032;-81
2023/10/04 03:45:22;;;;;;;2.75;1.27;;;;;;;6.89;100.00;94161.81;2091250;28;20027;-83
2023/10/04 03:46:23;;;;;;;2.50;1.45;;;;;;;6.91;100.00;94164.84;2096326;28;20051;-81
2023/10/04 03:47:26;;;;;;;2.53;1.50;;;;;;;6.81;100.00;94163.63;2077744;28;20137;-82
2023/10/04 03:48:29;;;;;;;2.53;1.40;;;;;;;6.73;100.00;94162.03;2094221;28;20032;-81
2023/10/04 03:49:30;;;;;;;2.42;1.48;;;;;;;6.77;100.00;94160.19;2082332;28;20044;-79
2023/10/04 03:50:31;;;;;;;3.15;1.42;;;;;;;6.86;100.00;94162.53;2086765;28;20503;-82
2023/10/04 03:51:33;;;;;;;2.17;1.25;;;;;;;6.89;100.00;94164.47;2090095;28;20106;-81
2023/10/04 03:52:34;;;;;;;1.88;1.33;;;;;;;6.98;100.00;94164.16;2092388;28;20079;-81
2023/10/04 03:53:36;;;;;;;1.48;1.23;;;;;;;6.96;100.00;94148.56;2082007;28;20110;-80
2023/10/04 03:54:37;;;;;;;2.58;1.38;;;;;;;6.90;100.00;94160.69;2074299;28;20022;-79
2023/10/04 03:55:39;;;;;;;2.63;1.30;;;;;;;6.80;100.00;94164.78;2089049;28;20036;-83
2023/10/04 03:56:41;;;;;;;4.40;1.50;;;;;;;6.82;100.00;94159.09;2089052;28;20056;-81
2023/10/04 03:57:42;;;;;;;2.80;1.50;;;;;;;6.89;100.00;94155.72;2104076;28;20034;-84
2023/10/04 03:58:44;;;;;;;1.63;1.30;;;;;;;6.86;100.00;94154.56;2103763;28;20241;-80
2023/10/04 03:59:45;;;;;;;1.88;1.50;;;;;;;6.72;100.00;94167.72;2106684;28;20028;-81
2023/10/04 04:00:47;;;;;;;3.03;1.38;;;;;;;6.64;100.00;94158.16;2087497;28;20030;-81
2023/10/04 04:01:48;;;;;;;1.60;1.05;;;;;;;6.62;100.00;94155.09;2096202;28;20024;-82
2023/10/04 04:02:50;;;;;;;3.45;1.33;;;;;;;6.49;100.00;94159.88;2087909;28;20186;-82
2023/10/04 04:03:51;;;;;;;2.70;1.30;;;;;;;6.61;100.00;94156.22;2095505;28;20028;-81
2023/10/04 04:04:52;;;;;;;2.10;1.10;;;;;;;6.54;100.00;94159.56;2081597;28;20036;-81
2023/10/04 04:05:54;;;;;;;2.55;1.38;;;;;;;6.57;100.00;94158.84;2084428;28;20048;-81
2023/10/04 04:06:55;;;;;;;3.95;1.40;;;;;;;6.64;100.00;94158.91;2095549;28;20025;-83
2023/10/04 04:07:56;;;;;;;2.33;1.30;;;;;;;6.67;100.00;94160.06;2101539;28;20024;-83
2023/10/04 04:09:10;;;;;;;6.63;1.40;;;;;;;6.75;100.00;94161.66;2093275;28;20111;-82
2023/10/04 04:10:16;;;;;;;1.75;1.50;;;;;;;6.64;100.00;94163.47;2095539;28;20016;-82
2023/10/04 04:11:18;;;;;;;1.70;1.15;;;;;;;6.57;100.00;94156.94;2100213;28;20465;-80
2023/10/04 04:12:21;;;;;;;3.47;1.20;;;;;;;6.55;100.00;94163.75;2096820;28;20043;-82
2023/10/04 04:13:23;;;;;;;2.33;1.40;;;;;;;6.55;100.00;94164.53;2073848;28;20025;-81
2023/10/04 04:14:24;;;;;;;2.13;1.30;;;;;;;6.61;100.00;94158.88;2090623;28;20020;-81
2023/10/04 04:15:27;;;;;;;1.90;1.27;;;;;;;6.48;100.00;94161.78;2097961;28;20405;-82
2023/10/04 04:16:29;;;;;;;3.03;1.40;;;;;;;6.48;100.00;94156.47;2098236;28;20024;-81
2023/10/04 04:17:39;;;;;;;4.00;1.38;;;;;;;6.29;100.00;94165.38;2103622;28;20114;-81
2023/10/04 04:18:40;;;;;;;3.15;1.35;;;;;;;6.36;100.00;94151.41;2092301;28;20127;-82
2023/10/04 04:19:41;;;;;;;4.03;1.50;;;;;;;6.37;100.00;94160.16;2093129;28;20403;-80
2023/10/04 04:20:42;;;;;;;2.50;1.30;;;;;;;6.31;100.00;94149.84;2103730;28;20355;-83
2023/10/04 04:21:43;;;;;;;1.60;1.20;;;;;;;6.26;100.00;94150.16;2101338;28;20028;-80
2023/10/04 04:22:55;;;;;;;2.15;1.33;;;;;;;6.18;100.00;94159.16;2110211;28;20889;-82
2023/10/04 04:23:56;;;;;;;1.67;1.35;;;;;;;6.17;100.00;94154.97;2102885;28;20020;-80
2023/10/04 04:24:57;;;;;;;1.52;1.20;;;;;;;6.26;100.00;94154.69;2097857;28;20028;-82
2023/10/04 04:26:00;;;;;;;2.42;1.50;;;;;;;6.40;100.00;94154.09;2092057;28;20032;-82
2023/10/04 04:27:04;;;;;;;2.53;1.20;;;;;;;6.35;100.00;94152.53;2098312;28;20496;-82
2023/10/04 04:28:12;;;;;;;1.48;1.05;;;;;;;6.35;100.00;94155.19;2105885;28;20028;-83
2023/10/04 04:29:13;;;;;;;1.95;1.30;;;;;;;6.32;100.00;94153.25;2088468;28;20360;-81
2023/10/04 04:30:19;;;;;;;2.38;1.63;;;;;;;6.43;100.00;94153.38;2089475;28;20045;-83
2023/10/04 04:31:20;;;;;;;3.90;1.45;;;;;;;6.37;100.00;94155.59;2086878;28;20037;-81
2023/10/04 04:32:26;;;;;;;2.25;1.27;;;;;;;6.20;100.00;94151.63;2076635;28;20024;-81
2023/10/04 04:33:28;;;;;;;1.38;1.02;;;;;;;6.15;100.00;94162.56;2097847;28;20036;-81
2023/10/04 04:34:29;;;;;;;2.10;1.25;;;;;;;6.19;100.00;94162.56;2088485;28;20022;-79
2023/10/04 04:36:42;;;;;;;2.03;1.23;;;;;;;6.23;100.00;94163.38;2107258;28;20077;-83
2023/10/04 04:37:44;;;;;;;2.53;1.45;;;;;;;6.11;100.00;94169.72;2098484;28;20055;-82
2023/10/04 04:38:47;;;;;;;2.35;1.42;;;;;;;6.09;100.00;94168.53;2106386;28;20027;-82
2023/10/04 04:39:48;;;;;;;3.30;1.30;;;;;;;6.12;100.00;94171.22;2105549;28;20104;-81
2023/10/04 04:40:52;;;;;;;1.55;1.10;;;;;;;6.07;100.00;94182.16;2086575;28;20021;-83
2023/10/04 04:41:55;;;;;;;2.33;1.20;;;;;;;5.80;100.00;94179.53;2085998;28;20105;-80
2023/10/04 04:43:17;;;;;;;2.47;1.25;;;;;;;5.84;100.00;94178.78;2097145;28;20508;-81
2023/10/04 04:44:23;;;;;;;1.77;1.20;;;;;;;5.85;100.00;94183.75;2103364;28;20031;-81
2023/10/04 04:45:25;;;;;;;2.28;1.38;;;;;;;5.92;100.00;94183.09;2097615;28;20028;-83
2023/10/04 04:46:32;;;;;;;2.80;1.40;;;;;;;5.94;100.00;94186.16;2083733;28;20021;-82
2023/10/04 04:47:37;;;;;;;3.00;1.42;;;;;;;5.98;100.00;94177.13;2089210;28;20051;-85
2023/10/04 04:48:38;;;;;;;1.95;1.48;;;;;;;5.90;100.00;94180.03;2090408;28;20438;-82
2023/10/04 04:49:40;;;;;;;3.72;1.27;;;;;;;5.90;100.00;94185.31;2086421;28;20032;-80
2023/10/04 04:50:41;;;;;;;3.13;1.85;;;;;;;5.67;100.00;94180.84;2096176;28;20024;-81
2023/10/04 04:51:46;;;;;;;2.58;1.38;;;;;;;5.75;100.00;94179.03;2075953;28;20030;-80
2023/10/04 04:52:47;;;;;;;1.77;1.08;;;;;;;5.84;100.00;94176.94;2097093;28;20098;-83
2023/10/04 04:53:50;;;;;;;4.75;1.58;;;;;;;5.80;100.00;94174.22;2095403;28;20029;-81
2023/10/04 04:54:51;;;;;;;3.53;1.40;;;;;;;5.81;100.00;94177.63;2093202;28;20032;-84
2023/10/04 04:55:56;;;;;;;1.50;1.27;;;;;;;5.87;100.00;94173.53;2092079;28;20115;-84
2023/10/04 04:56:57;;;;;;;4.63;1.30;;;;;;;5.99;100.00;94170.69;2100956;28;20035;-81
2023/10/04 04:57:59;;;;;;;2.80;1.30;;;;;;;6.01;100.00;94171.13;2096325;28;20051;-84
2023/10/04 04:59:07;;;;;;;2.90;1.35;;;;;;;6.03;100.00;94179.47;2089786;28;20127;-81